sensor_id;sensor_type;location;lat;lon;timestamp;temperature;humidity
71837;DHT22;59686;51.716;7.016;2024-02-15T00:02:13;11.50;99.90
71837;DHT22;59686;51.716;7.016;2024-02-15T00:04:40;11.60;99.90
71837;DHT22;59686;51.716;7.016;2024-02-15T00:07:06;11.50;99.90
71837;DHT22;59686;51.716;7.016;2024-02-15T00:09:31;11.70;99.90
71837;DHT22;59686;51.716;7.016;2024-02-15T00:11:57;11.60;99.90
71837;DHT22;59686;51.716;7.016;2024-02-15T00:14:25;11.60;99.90
71837;DHT22;59686;51.716;7.016;2024-02-15T00:16:53;11.60;99.90
71837;DHT22;59686;51.716;7.016;2024-02-15T00:19:19;11.60;99.90
71837;DHT22;59686;51.716;7.016;2024-02-15T00:21:44;11.60;99.90
71837;DHT22;59686;51.716;7.016;2024-02-15T00:24:10;11.70;99.90
71837;DHT22;59686;51.716;7.016;2024-02-15T00:26:37;11.60;99.90
71837;DHT22;59686;51.716;7.016;2024-02-15T00:29:03;11.60;99.90
71837;DHT22;59686;51.716;7.016;2024-02-15T00:31:29;11.60;99.90
71837;DHT22;59686;51.716;7.016;2024-02-15T00:33:55;11.60;99.90
71837;DHT22;59686;51.716;7.016;2024-02-15T00:36:21;11.60;99.90
71837;DHT22;59686;51.716;7.016;2024-02-15T00:38:46;11.60;99.90
71837;DHT22;59686;51.716;7.016;2024-02-15T00:41:12;11.70;99.90
71837;DHT22;59686;51.716;7.016;2024-02-15T00:43:38;11.70;99.90
71837;DHT22;59686;51.716;7.016;2024-02-15T00:46:03;11.60;99.90
71837;DHT22;59686;51.716;7.016;2024-02-15T00:48:29;11.60;99.90
71837;DHT22;59686;51.716;7.016;2024-02-15T00:50:56;11.70;99.90
71837;DHT22;59686;51.716;7.016;2024-02-15T00:53:22;11.70;99.90
71837;DHT22;59686;51.716;7.016;2024-02-15T00:55:47;11.70;99.90
71837;DHT22;59686;51.716;7.016;2024-02-15T00:58:13;11.70;99.90
71837;DHT22;59686;51.716;7.016;2024-02-15T01:00:39;11.70;99.90
71837;DHT22;59686;51.716;7.016;2024-02-15T01:03:04;11.60;99.90
71837;DHT22;59686;51.716;7.016;2024-02-15T01:05:30;11.70;99.90
71837;DHT22;59686;51.716;7.016;2024-02-15T01:07:56;11.50;99.90
71837;DHT22;59686;51.716;7.016;2024-02-15T01:10:22;11.70;99.90
71837;DHT22;59686;51.716;7.016;2024-02-15T01:12:50;11.70;99.90
71837;DHT22;59686;51.716;7.016;2024-02-15T01:15:15;11.70;99.90
71837;DHT22;59686;51.716;7.016;2024-02-15T01:17:44;11.70;99.90
71837;DHT22;59686;51.716;7.016;2024-02-15T01:20:10;11.70;99.90
71837;DHT22;59686;51.716;7.016;2024-02-15T01:22:36;11.70;99.90
71837;DHT22;59686;51.716;7.016;2024-02-15T01:25:02;11.70;99.90
71837;DHT22;59686;51.716;7.016;2024-02-15T01:27:28;11.70;99.90
71837;DHT22;59686;51.716;7.016;2024-02-15T01:29:57;11.70;99.90
71837;DHT22;59686;51.716;7.016;2024-02-15T01:32:22;11.70;99.90
71837;DHT22;59686;51.716;7.016;2024-02-15T01:34:48;11.70;99.90
71837;DHT22;59686;51.716;7.016;2024-02-15T01:37:16;11.70;99.90
71837;DHT22;59686;51.716;7.016;2024-02-15T01:39:42;11.60;99.90
71837;DHT22;59686;51.716;7.016;2024-02-15T01:42:08;11.80;99.90
71837;DHT22;59686;51.716;7.016;2024-02-15T01:44:38;11.70;99.90
71837;DHT22;59686;51.716;7.016;2024-02-15T01:47:05;11.70;99.90
71837;DHT22;59686;51.716;7.016;2024-02-15T01:49:31;11.70;99.90
71837;DHT22;59686;51.716;7.016;2024-02-15T01:51:58;11.70;99.90
71837;DHT22;59686;51.716;7.016;2024-02-15T01:54:26;11.80;99.90
71837;DHT22;59686;51.716;7.016;2024-02-15T01:56:53;11.70;99.90
71837;DHT22;59686;51.716;7.016;2024-02-15T01:59:22;11.70;99.90
71837;DHT22;59686;51.716;7.016;2024-02-15T02:01:48;11.70;99.90
71837;DHT22;59686;51.716;7.016;2024-02-15T02:04:15;11.60;99.90
71837;DHT22;59686;51.716;7.016;2024-02-15T02:06:41;11.60;99.90
71837;DHT22;59686;51.716;7.016;2024-02-15T02:09:10;11.80;99.90
71837;DHT22;59686;51.716;7.016;2024-02-15T02:11:38;11.80;99.90
71837;DHT22;59686;51.716;7.016;2024-02-15T02:14:04;11.70;99.90
71837;DHT22;59686;51.716;7.016;2024-02-15T02:16:31;11.70;99.90
71837;DHT22;59686;51.716;7.016;2024-02-15T02:19:01;11.70;99.90
71837;DHT22;59686;51.716;7.016;2024-02-15T02:21:28;11.70;99.90
71837;DHT22;59686;51.716;7.016;2024-02-15T02:23:56;11.70;99.90
71837;DHT22;59686;51.716;7.016;2024-02-15T02:26:23;11.70;99.90
71837;DHT22;59686;51.716;7.016;2024-02-15T02:28:50;11.70;99.90
71837;DHT22;59686;51.716;7.016;2024-02-15T02:31:16;11.70;99.90
71837;DHT22;59686;51.716;7.016;2024-02-15T02:33:52;11.70;99.90
71837;DHT22;59686;51.716;7.016;2024-02-15T02:36:19;11.70;99.90
71837;DHT22;59686;51.716;7.016;2024-02-15T02:38:45;11.60;99.90
71837;DHT22;59686;51.716;7.016;2024-02-15T02:41:11;11.70;99.90
71837;DHT22;59686;51.716;7.016;2024-02-15T02:43:40;11.70;99.90
71837;DHT22;59686;51.716;7.016;2024-02-15T02:46:08;11.70;99.90
71837;DHT22;59686;51.716;7.016;2024-02-15T02:48:36;11.70;99.90
71837;DHT22;59686;51.716;7.016;2024-02-15T02:51:02;11.70;99.90
71837;DHT22;59686;51.716;7.016;2024-02-15T02:53:28;11.70;99.90
71837;DHT22;59686;51.716;7.016;2024-02-15T02:55:55;11.70;99.90
71837;DHT22;59686;51.716;7.016;2024-02-15T02:58:22;11.80;99.90
71837;DHT22;59686;51.716;7.016;2024-02-15T03:00:49;11.70;99.90
71837;DHT22;59686;51.716;7.016;2024-02-15T03:03:15;11.70;99.90
71837;DHT22;59686;51.716;7.016;2024-02-15T03:05:41;11.70;99.90
71837;DHT22;59686;51.716;7.016;2024-02-15T03:08:11;11.80;99.90
71837;DHT22;59686;51.716;7.016;2024-02-15T03:10:38;11.80;99.90
71837;DHT22;59686;51.716;7.016;2024-02-15T03:13:05;11.80;99.90
71837;DHT22;59686;51.716;7.016;2024-02-15T03:15:31;11.80;99.90
71837;DHT22;59686;51.716;7.016;2024-02-15T03:17:58;11.80;99.90
71837;DHT22;59686;51.716;7.016;2024-02-15T03:20:24;11.80;99.90
71837;DHT22;59686;51.716;7.016;2024-02-15T03:22:57;11.80;99.90
71837;DHT22;59686;51.716;7.016;2024-02-15T03:25:24;11.70;99.90
71837;DHT22;59686;51.716;7.016;2024-02-15T03:27:51;11.70;99.90
71837;DHT22;59686;51.716;7.016;2024-02-15T03:30:20;11.80;99.90
71837;DHT22;59686;51.716;7.016;2024-02-15T03:32:47;11.80;99.90
71837;DHT22;59686;51.716;7.016;2024-02-15T03:35:20;11.80;99.90
71837;DHT22;59686;51.716;7.016;2024-02-15T03:37:48;11.80;99.90
71837;DHT22;59686;51.716;7.016;2024-02-15T03:40:16;11.80;99.90
71837;DHT22;59686;51.716;7.016;2024-02-15T03:42:42;11.80;99.90
71837;DHT22;59686;51.716;7.016;2024-02-15T03:45:08;11.80;99.90
71837;DHT22;59686;51.716;7.016;2024-02-15T03:47:37;11.80;99.90
71837;DHT22;59686;51.716;7.016;2024-02-15T03:50:03;11.90;99.90
71837;DHT22;59686;51.716;7.016;2024-02-15T03:52:30;11.80;99.90
71837;DHT22;59686;51.716;7.016;2024-02-15T03:54:56;11.80;99.90
71837;DHT22;59686;51.716;7.016;2024-02-15T03:57:23;11.80;99.90
71837;DHT22;59686;51.716;7.016;2024-02-15T03:59:49;11.80;99.90
71837;DHT22;59686;51.716;7.016;2024-02-15T04:02:21;11.80;99.90
71837;DHT22;59686;51.716;7.016;2024-02-15T04:04:49;11.80;99.90
71837;DHT22;59686;51.716;7.016;2024-02-15T04:07:18;11.90;99.90
71837;DHT22;59686;51.716;7.016;2024-02-15T04:09:47;11.80;99.90
71837;DHT22;59686;51.716;7.016;2024-02-15T04:12:13;11.80;99.90
71837;DHT22;59686;51.716;7.016;2024-02-15T04:14:46;11.80;99.90
71837;DHT22;59686;51.716;7.016;2024-02-15T04:17:13;11.80;99.90
71837;DHT22;59686;51.716;7.016;2024-02-15T04:19:45;11.80;99.90
71837;DHT22;59686;51.716;7.016;2024-02-15T04:22:12;11.90;99.90
71837;DHT22;59686;51.716;7.016;2024-02-15T04:24:38;11.80;99.90
71837;DHT22;59686;51.716;7.016;2024-02-15T04:27:07;11.80;99.90
71837;DHT22;59686;51.716;7.016;2024-02-15T04:29:46;11.80;99.90
71837;DHT22;59686;51.716;7.016;2024-02-15T04:32:12;11.80;99.90
71837;DHT22;59686;51.716;7.016;2024-02-15T04:34:39;11.90;99.90
71837;DHT22;59686;51.716;7.016;2024-02-15T04:37:05;11.80;99.90
71837;DHT22;59686;51.716;7.016;2024-02-15T04:39:36;11.90;99.90
71837;DHT22;59686;51.716;7.016;2024-02-15T04:42:03;11.90;99.90
71837;DHT22;59686;51.716;7.016;2024-02-15T04:44:31;11.80;99.90
71837;DHT22;59686;51.716;7.016;2024-02-15T04:47:00;11.80;99.90
71837;DHT22;59686;51.716;7.016;2024-02-15T04:49:26;11.80;99.90
71837;DHT22;59686;51.716;7.016;2024-02-15T04:51:55;11.80;99.90
71837;DHT22;59686;51.716;7.016;2024-02-15T04:54:20;11.80;99.90
71837;DHT22;59686;51.716;7.016;2024-02-15T04:56:47;11.80;99.90
71837;DHT22;59686;51.716;7.016;2024-02-15T04:59:13;11.80;99.90
71837;DHT22;59686;51.716;7.016;2024-02-15T05:01:41;11.90;99.90
71837;DHT22;59686;51.716;7.016;2024-02-15T05:04:11;11.80;99.90
71837;DHT22;59686;51.716;7.016;2024-02-15T05:06:38;12.00;99.90
71837;DHT22;59686;51.716;7.016;2024-02-15T05:09:04;11.90;99.90
71837;DHT22;59686;51.716;7.016;2024-02-15T05:11:36;11.90;99.90
71837;DHT22;59686;51.716;7.016;2024-02-15T05:14:03;11.80;99.90
71837;DHT22;59686;51.716;7.016;2024-02-15T05:16:33;11.80;99.90
71837;DHT22;59686;51.716;7.016;2024-02-15T05:18:59;11.80;99.90
71837;DHT22;59686;51.716;7.016;2024-02-15T05:21:24;11.90;99.90
71837;DHT22;59686;51.716;7.016;2024-02-15T05:23:50;11.80;99.90
71837;DHT22;59686;51.716;7.016;2024-02-15T05:26:18;11.80;99.90
71837;DHT22;59686;51.716;7.016;2024-02-15T05:28:49;11.80;99.90
71837;DHT22;59686;51.716;7.016;2024-02-15T05:31:19;11.80;99.90
71837;DHT22;59686;51.716;7.016;2024-02-15T05:33:53;11.80;99.90
71837;DHT22;59686;51.716;7.016;2024-02-15T05:36:20;11.80;99.90
71837;DHT22;59686;51.716;7.016;2024-02-15T05:38:51;11.90;99.90
71837;DHT22;59686;51.716;7.016;2024-02-15T05:41:17;11.80;99.90
71837;DHT22;59686;51.716;7.016;2024-02-15T05:43:45;11.90;99.90
71837;DHT22;59686;51.716;7.016;2024-02-15T05:46:12;11.90;99.90
71837;DHT22;59686;51.716;7.016;2024-02-15T05:48:38;11.90;99.90
71837;DHT22;59686;51.716;7.016;2024-02-15T05:51:05;11.90;99.90
71837;DHT22;59686;51.716;7.016;2024-02-15T05:53:32;11.80;99.90
71837;DHT22;59686;51.716;7.016;2024-02-15T05:56:08;11.90;99.90
71837;DHT22;59686;51.716;7.016;2024-02-15T05:58:36;11.90;99.90
71837;DHT22;59686;51.716;7.016;2024-02-15T06:01:03;11.80;99.90
71837;DHT22;59686;51.716;7.016;2024-02-15T06:03:33;11.90;99.90
71837;DHT22;59686;51.716;7.016;2024-02-15T06:06:02;11.80;99.90
71837;DHT22;59686;51.716;7.016;2024-02-15T06:08:32;11.90;99.90
71837;DHT22;59686;51.716;7.016;2024-02-15T06:10:58;11.90;99.90
71837;DHT22;59686;51.716;7.016;2024-02-15T06:13:25;11.90;99.90
71837;DHT22;59686;51.716;7.016;2024-02-15T06:15:51;11.90;99.90
71837;DHT22;59686;51.716;7.016;2024-02-15T06:18:21;11.90;99.90
71837;DHT22;59686;51.716;7.016;2024-02-15T06:20:53;11.90;99.90
71837;DHT22;59686;51.716;7.016;2024-02-15T06:23:19;11.90;99.90
71837;DHT22;59686;51.716;7.016;2024-02-15T06:25:46;11.90;99.90
71837;DHT22;59686;51.716;7.016;2024-02-15T06:28:15;11.90;99.90
71837;DHT22;59686;51.716;7.016;2024-02-15T06:30:59;11.90;99.90
71837;DHT22;59686;51.716;7.016;2024-02-15T06:33:43;11.70;99.90
71837;DHT22;59686;51.716;7.016;2024-02-15T06:36:27;11.80;99.90
71837;DHT22;59686;51.716;7.016;2024-02-15T06:39:12;11.90;99.90
71837;DHT22;59686;51.716;7.016;2024-02-15T06:41:56;11.90;99.90
71837;DHT22;59686;51.716;7.016;2024-02-15T06:44:22;11.90;99.90
71837;DHT22;59686;51.716;7.016;2024-02-15T06:46:49;11.90;99.90
71837;DHT22;59686;51.716;7.016;2024-02-15T06:49:15;11.90;99.90
71837;DHT22;59686;51.716;7.016;2024-02-15T06:51:42;11.90;99.90
71837;DHT22;59686;51.716;7.016;2024-02-15T06:54:09;11.90;99.90
71837;DHT22;59686;51.716;7.016;2024-02-15T06:56:39;11.90;99.90
71837;DHT22;59686;51.716;7.016;2024-02-15T06:59:06;12.00;99.90
71837;DHT22;59686;51.716;7.016;2024-02-15T07:01:32;12.00;99.90
71837;DHT22;59686;51.716;7.016;2024-02-15T07:04:00;11.90;99.90
71837;DHT22;59686;51.716;7.016;2024-02-15T07:06:26;12.00;99.90
71837;DHT22;59686;51.716;7.016;2024-02-15T07:08:53;11.90;99.90
71837;DHT22;59686;51.716;7.016;2024-02-15T07:11:22;11.90;99.90
71837;DHT22;59686;51.716;7.016;2024-02-15T07:13:48;12.00;99.90
71837;DHT22;59686;51.716;7.016;2024-02-15T07:16:13;11.90;99.90
71837;DHT22;59686;51.716;7.016;2024-02-15T07:18:41;11.90;99.90
71837;DHT22;59686;51.716;7.016;2024-02-15T07:21:07;12.00;99.90
71837;DHT22;59686;51.716;7.016;2024-02-15T07:23:39;11.90;99.90
71837;DHT22;59686;51.716;7.016;2024-02-15T07:26:07;11.90;99.90
71837;DHT22;59686;51.716;7.016;2024-02-15T07:28:33;11.90;99.90
71837;DHT22;59686;51.716;7.016;2024-02-15T07:30:59;11.80;99.90
71837;DHT22;59686;51.716;7.016;2024-02-15T07:33:28;11.80;99.90
71837;DHT22;59686;51.716;7.016;2024-02-15T07:35:54;11.80;99.90
71837;DHT22;59686;51.716;7.016;2024-02-15T07:38:22;11.80;99.90
71837;DHT22;59686;51.716;7.016;2024-02-15T07:40:49;12.00;99.90
71837;DHT22;59686;51.716;7.016;2024-02-15T07:43:15;11.90;99.90
71837;DHT22;59686;51.716;7.016;2024-02-15T07:45:42;11.90;99.90
71837;DHT22;59686;51.716;7.016;2024-02-15T07:48:07;11.90;99.90
71837;DHT22;59686;51.716;7.016;2024-02-15T07:50:33;11.90;99.90
71837;DHT22;59686;51.716;7.016;2024-02-15T07:52:59;11.90;99.90
71837;DHT22;59686;51.716;7.016;2024-02-15T07:55:25;11.90;99.90
71837;DHT22;59686;51.716;7.016;2024-02-15T07:57:51;11.90;99.90
71837;DHT22;59686;51.716;7.016;2024-02-15T08:00:17;11.90;99.90
71837;DHT22;59686;51.716;7.016;2024-02-15T08:02:43;11.90;99.90
71837;DHT22;59686;51.716;7.016;2024-02-15T08:05:12;11.90;99.90
71837;DHT22;59686;51.716;7.016;2024-02-15T08:07:44;11.90;99.90
71837;DHT22;59686;51.716;7.016;2024-02-15T08:10:11;11.90;99.90
71837;DHT22;59686;51.716;7.016;2024-02-15T08:12:40;12.00;99.90
71837;DHT22;59686;51.716;7.016;2024-02-15T08:15:07;12.00;99.90
71837;DHT22;59686;51.716;7.016;2024-02-15T08:17:44;11.90;99.90
71837;DHT22;59686;51.716;7.016;2024-02-15T08:20:13;11.90;99.90
71837;DHT22;59686;51.716;7.016;2024-02-15T08:22:40;11.90;99.90
71837;DHT22;59686;51.716;7.016;2024-02-15T08:25:11;11.90;99.90
71837;DHT22;59686;51.716;7.016;2024-02-15T08:27:41;11.90;99.90
71837;DHT22;59686;51.716;7.016;2024-02-15T08:30:14;11.90;99.90
71837;DHT22;59686;51.716;7.016;2024-02-15T08:32:41;11.90;99.90
71837;DHT22;59686;51.716;7.016;2024-02-15T08:35:14;11.90;99.90
71837;DHT22;59686;51.716;7.016;2024-02-15T08:37:40;11.90;99.90
71837;DHT22;59686;51.716;7.016;2024-02-15T08:40:08;12.00;99.90
71837;DHT22;59686;51.716;7.016;2024-02-15T08:42:42;12.00;99.90
71837;DHT22;59686;51.716;7.016;2024-02-15T08:45:09;11.90;99.90
71837;DHT22;59686;51.716;7.016;2024-02-15T08:47:40;12.00;99.90
71837;DHT22;59686;51.716;7.016;2024-02-15T08:50:07;11.90;99.90
71837;DHT22;59686;51.716;7.016;2024-02-15T08:52:36;12.00;99.90
71837;DHT22;59686;51.716;7.016;2024-02-15T08:55:09;12.00;99.90
71837;DHT22;59686;51.716;7.016;2024-02-15T08:57:36;12.00;99.90
71837;DHT22;59686;51.716;7.016;2024-02-15T09:00:05;12.10;99.90
71837;DHT22;59686;51.716;7.016;2024-02-15T09:02:45;12.00;99.90
71837;DHT22;59686;51.716;7.016;2024-02-15T09:05:10;12.00;99.90
71837;DHT22;59686;51.716;7.016;2024-02-15T09:07:40;12.10;99.90
71837;DHT22;59686;51.716;7.016;2024-02-15T09:10:08;12.00;99.90
71837;DHT22;59686;51.716;7.016;2024-02-15T09:12:39;12.00;99.90
71837;DHT22;59686;51.716;7.016;2024-02-15T09:15:09;12.00;99.90
71837;DHT22;59686;51.716;7.016;2024-02-15T09:17:36;12.00;99.90
71837;DHT22;59686;51.716;7.016;2024-02-15T09:20:15;12.00;99.90
71837;DHT22;59686;51.716;7.016;2024-02-15T09:22:50;12.00;99.90
71837;DHT22;59686;51.716;7.016;2024-02-15T09:25:17;12.00;99.90
71837;DHT22;59686;51.716;7.016;2024-02-15T09:27:44;11.90;99.90
71837;DHT22;59686;51.716;7.016;2024-02-15T09:30:11;12.00;99.90
71837;DHT22;59686;51.716;7.016;2024-02-15T09:32:38;12.00;99.90
71837;DHT22;59686;51.716;7.016;2024-02-15T09:35:05;12.00;99.90
71837;DHT22;59686;51.716;7.016;2024-02-15T09:37:36;12.00;99.90
71837;DHT22;59686;51.716;7.016;2024-02-15T09:40:08;12.00;99.90
71837;DHT22;59686;51.716;7.016;2024-02-15T09:42:35;12.10;99.90
71837;DHT22;59686;51.716;7.016;2024-02-15T09:45:03;12.00;99.90
71837;DHT22;59686;51.716;7.016;2024-02-15T09:47:35;12.00;99.90
71837;DHT22;59686;51.716;7.016;2024-02-15T09:50:13;12.10;99.90
71837;DHT22;59686;51.716;7.016;2024-02-15T09:52:42;12.00;99.90
71837;DHT22;59686;51.716;7.016;2024-02-15T09:55:09;12.10;99.90
71837;DHT22;59686;51.716;7.016;2024-02-15T09:57:39;12.10;99.90
71837;DHT22;59686;51.716;7.016;2024-02-15T10:00:05;12.10;99.90
71837;DHT22;59686;51.716;7.016;2024-02-15T10:02:35;12.10;99.90
71837;DHT22;59686;51.716;7.016;2024-02-15T10:05:04;12.10;99.90
71837;DHT22;59686;51.716;7.016;2024-02-15T10:07:30;12.10;99.90
71837;DHT22;59686;51.716;7.016;2024-02-15T10:09:56;12.20;99.90
71837;DHT22;59686;51.716;7.016;2024-02-15T10:12:22;12.00;99.90
71837;DHT22;59686;51.716;7.016;2024-02-15T10:14:50;12.10;99.90
71837;DHT22;59686;51.716;7.016;2024-02-15T10:17:16;12.10;99.90
71837;DHT22;59686;51.716;7.016;2024-02-15T10:19:43;12.10;99.90
71837;DHT22;59686;51.716;7.016;2024-02-15T10:22:10;12.10;99.90
71837;DHT22;59686;51.716;7.016;2024-02-15T10:24:37;12.10;99.90
71837;DHT22;59686;51.716;7.016;2024-02-15T10:27:05;12.10;99.90
71837;DHT22;59686;51.716;7.016;2024-02-15T10:29:33;12.00;99.90
71837;DHT22;59686;51.716;7.016;2024-02-15T10:32:03;12.20;99.90
71837;DHT22;59686;51.716;7.016;2024-02-15T10:34:30;12.10;99.90
71837;DHT22;59686;51.716;7.016;2024-02-15T10:37:15;12.10;99.90
71837;DHT22;59686;51.716;7.016;2024-02-15T10:39:45;12.10;99.90
71837;DHT22;59686;51.716;7.016;2024-02-15T10:42:13;12.10;99.90
71837;DHT22;59686;51.716;7.016;2024-02-15T10:44:39;12.20;99.90
71837;DHT22;59686;51.716;7.016;2024-02-15T10:47:06;12.10;99.90
71837;DHT22;59686;51.716;7.016;2024-02-15T10:49:34;12.20;99.90
71837;DHT22;59686;51.716;7.016;2024-02-15T10:52:01;12.20;99.90
71837;DHT22;59686;51.716;7.016;2024-02-15T10:55:01;12.10;99.90
71837;DHT22;59686;51.716;7.016;2024-02-15T10:57:31;12.20;99.90
71837;DHT22;59686;51.716;7.016;2024-02-15T10:59:58;12.20;99.90
71837;DHT22;59686;51.716;7.016;2024-02-15T11:02:27;12.20;99.90
71837;DHT22;59686;51.716;7.016;2024-02-15T11:04:58;12.20;99.90
71837;DHT22;59686;51.716;7.016;2024-02-15T11:07:28;12.20;99.90
71837;DHT22;59686;51.716;7.016;2024-02-15T11:09:55;12.20;99.90
71837;DHT22;59686;51.716;7.016;2024-02-15T11:12:24;12.20;99.90
71837;DHT22;59686;51.716;7.016;2024-02-15T11:14:52;12.30;99.90
71837;DHT22;59686;51.716;7.016;2024-02-15T11:20:06;12.20;99.90
71837;DHT22;59686;51.716;7.016;2024-02-15T11:22:36;12.30;99.90
71837;DHT22;59686;51.716;7.016;2024-02-15T11:25:06;12.30;99.90
71837;DHT22;59686;51.716;7.016;2024-02-15T11:27:38;12.30;99.90
71837;DHT22;59686;51.716;7.016;2024-02-15T11:30:05;12.30;99.90
71837;DHT22;59686;51.716;7.016;2024-02-15T11:32:49;12.30;99.90
71837;DHT22;59686;51.716;7.016;2024-02-15T11:35:20;12.30;99.90
71837;DHT22;59686;51.716;7.016;2024-02-15T11:42:49;12.40;99.90
71837;DHT22;59686;51.716;7.016;2024-02-15T11:45:16;12.40;99.90
71837;DHT22;59686;51.716;7.016;2024-02-15T11:47:48;12.40;99.90
71837;DHT22;59686;51.716;7.016;2024-02-15T11:50:19;12.40;99.90
71837;DHT22;59686;51.716;7.016;2024-02-15T11:52:50;12.40;99.90
71837;DHT22;59686;51.716;7.016;2024-02-15T11:55:21;12.40;99.90
71837;DHT22;59686;51.716;7.016;2024-02-15T11:57:57;12.40;99.90
71837;DHT22;59686;51.716;7.016;2024-02-15T12:00:35;12.40;99.90
71837;DHT22;59686;51.716;7.016;2024-02-15T12:03:19;12.40;99.90
71837;DHT22;59686;51.716;7.016;2024-02-15T12:06:04;12.40;99.90
71837;DHT22;59686;51.716;7.016;2024-02-15T12:08:51;12.50;99.90
71837;DHT22;59686;51.716;7.016;2024-02-15T12:11:36;12.50;99.90
71837;DHT22;59686;51.716;7.016;2024-02-15T12:14:21;12.60;99.90
71837;DHT22;59686;51.716;7.016;2024-02-15T12:17:09;12.50;99.90
71837;DHT22;59686;51.716;7.016;2024-02-15T12:19:55;12.50;99.90
71837;DHT22;59686;51.716;7.016;2024-02-15T12:22:40;12.50;99.90
71837;DHT22;59686;51.716;7.016;2024-02-15T12:25:07;12.60;99.90
71837;DHT22;59686;51.716;7.016;2024-02-15T12:27:41;12.60;99.90
71837;DHT22;59686;51.716;7.016;2024-02-15T12:30:12;12.60;99.90
71837;DHT22;59686;51.716;7.016;2024-02-15T12:32:38;12.60;99.90
71837;DHT22;59686;51.716;7.016;2024-02-15T12:35:30;12.60;99.90
71837;DHT22;59686;51.716;7.016;2024-02-15T12:40:33;12.50;99.90
71837;DHT22;59686;51.716;7.016;2024-02-15T12:42:59;12.60;99.90
71837;DHT22;59686;51.716;7.016;2024-02-15T12:45:31;12.60;99.90
71837;DHT22;59686;51.716;7.016;2024-02-15T12:47:58;12.50;99.90
71837;DHT22;59686;51.716;7.016;2024-02-15T12:50:27;12.60;99.90
71837;DHT22;59686;51.716;7.016;2024-02-15T12:52:54;12.60;99.90
71837;DHT22;59686;51.716;7.016;2024-02-15T12:55:30;12.60;99.90
71837;DHT22;59686;51.716;7.016;2024-02-15T12:58:03;12.60;99.90
71837;DHT22;59686;51.716;7.016;2024-02-15T13:00:31;12.60;99.90
71837;DHT22;59686;51.716;7.016;2024-02-15T13:02:59;12.60;99.90
71837;DHT22;59686;51.716;7.016;2024-02-15T13:05:27;12.60;99.90
71837;DHT22;59686;51.716;7.016;2024-02-15T13:07:55;12.60;99.90
71837;DHT22;59686;51.716;7.016;2024-02-15T13:10:21;12.60;99.90
71837;DHT22;59686;51.716;7.016;2024-02-15T13:12:48;12.60;99.90
71837;DHT22;59686;51.716;7.016;2024-02-15T13:15:15;12.60;99.90
71837;DHT22;59686;51.716;7.016;2024-02-15T13:17:48;12.60;99.90
71837;DHT22;59686;51.716;7.016;2024-02-15T13:20:17;12.60;99.90
71837;DHT22;59686;51.716;7.016;2024-02-15T13:22:46;12.60;99.90
71837;DHT22;59686;51.716;7.016;2024-02-15T13:25:13;12.60;99.90
71837;DHT22;59686;51.716;7.016;2024-02-15T13:27:42;12.70;99.90
71837;DHT22;59686;51.716;7.016;2024-02-15T13:30:09;12.70;99.90
71837;DHT22;59686;51.716;7.016;2024-02-15T13:32:41;12.70;99.90
71837;DHT22;59686;51.716;7.016;2024-02-15T13:35:08;12.70;99.90
71837;DHT22;59686;51.716;7.016;2024-02-15T13:37:46;12.60;99.90
71837;DHT22;59686;51.716;7.016;2024-02-15T13:40:12;12.70;99.90
71837;DHT22;59686;51.716;7.016;2024-02-15T13:42:44;12.70;99.90
71837;DHT22;59686;51.716;7.016;2024-02-15T13:45:16;12.70;99.90
71837;DHT22;59686;51.716;7.016;2024-02-15T13:47:46;12.70;99.90
71837;DHT22;59686;51.716;7.016;2024-02-15T13:50:13;12.80;99.90
71837;DHT22;59686;51.716;7.016;2024-02-15T13:52:43;12.70;99.90
71837;DHT22;59686;51.716;7.016;2024-02-15T13:55:11;12.70;99.90
71837;DHT22;59686;51.716;7.016;2024-02-15T13:57:38;12.70;99.90
71837;DHT22;59686;51.716;7.016;2024-02-15T14:00:04;12.70;99.90
71837;DHT22;59686;51.716;7.016;2024-02-15T14:02:31;12.80;99.90
71837;DHT22;59686;51.716;7.016;2024-02-15T14:04:57;12.80;99.90
71837;DHT22;59686;51.716;7.016;2024-02-15T14:07:23;12.60;99.90
71837;DHT22;59686;51.716;7.016;2024-02-15T14:09:48;12.70;99.90
71837;DHT22;59686;51.716;7.016;2024-02-15T14:12:14;12.80;99.90
71837;DHT22;59686;51.716;7.016;2024-02-15T14:14:42;12.80;99.90
71837;DHT22;59686;51.716;7.016;2024-02-15T14:17:08;12.80;99.90
71837;DHT22;59686;51.716;7.016;2024-02-15T14:19:34;12.80;99.90
71837;DHT22;59686;51.716;7.016;2024-02-15T14:22:00;12.80;99.90
71837;DHT22;59686;51.716;7.016;2024-02-15T14:24:27;12.80;99.90
71837;DHT22;59686;51.716;7.016;2024-02-15T14:26:53;12.80;99.90
71837;DHT22;59686;51.716;7.016;2024-02-15T14:29:18;12.80;99.90
71837;DHT22;59686;51.716;7.016;2024-02-15T14:31:53;12.80;99.90
71837;DHT22;59686;51.716;7.016;2024-02-15T14:34:37;12.90;99.90
71837;DHT22;59686;51.716;7.016;2024-02-15T14:37:03;12.80;99.90
71837;DHT22;59686;51.716;7.016;2024-02-15T14:39:31;12.80;99.90
71837;DHT22;59686;51.716;7.016;2024-02-15T14:41:57;12.80;99.90
71837;DHT22;59686;51.716;7.016;2024-02-15T14:44:23;12.90;99.90
71837;DHT22;59686;51.716;7.016;2024-02-15T14:46:49;12.80;99.90
71837;DHT22;59686;51.716;7.016;2024-02-15T14:49:14;12.70;99.90
71837;DHT22;59686;51.716;7.016;2024-02-15T14:51:42;12.80;99.90
71837;DHT22;59686;51.716;7.016;2024-02-15T14:54:08;12.80;99.90
71837;DHT22;59686;51.716;7.016;2024-02-15T14:56:33;12.90;99.90
71837;DHT22;59686;51.716;7.016;2024-02-15T14:58:59;12.80;99.90
71837;DHT22;59686;51.716;7.016;2024-02-15T15:01:26;12.80;99.90
71837;DHT22;59686;51.716;7.016;2024-02-15T15:03:56;12.80;99.90
71837;DHT22;59686;51.716;7.016;2024-02-15T15:06:24;12.80;99.90
71837;DHT22;59686;51.716;7.016;2024-02-15T15:09:08;12.80;99.90
71837;DHT22;59686;51.716;7.016;2024-02-15T15:12:03;12.80;99.90
71837;DHT22;59686;51.716;7.016;2024-02-15T15:14:48;12.80;99.90
71837;DHT22;59686;51.716;7.016;2024-02-15T15:17:14;12.90;99.90
71837;DHT22;59686;51.716;7.016;2024-02-15T15:19:41;12.80;99.90
71837;DHT22;59686;51.716;7.016;2024-02-15T15:22:07;12.90;99.90
71837;DHT22;59686;51.716;7.016;2024-02-15T15:24:33;12.90;99.90
71837;DHT22;59686;51.716;7.016;2024-02-15T15:26:59;13.00;99.90
71837;DHT22;59686;51.716;7.016;2024-02-15T15:29:25;12.90;99.90
71837;DHT22;59686;51.716;7.016;2024-02-15T15:31:51;12.90;99.90
71837;DHT22;59686;51.716;7.016;2024-02-15T15:34:17;12.90;99.90
71837;DHT22;59686;51.716;7.016;2024-02-15T15:36:45;12.90;99.90
71837;DHT22;59686;51.716;7.016;2024-02-15T15:39:15;12.90;99.90
71837;DHT22;59686;51.716;7.016;2024-02-15T15:41:45;13.00;99.90
71837;DHT22;59686;51.716;7.016;2024-02-15T15:44:10;13.00;99.90
71837;DHT22;59686;51.716;7.016;2024-02-15T15:46:36;13.00;99.90
71837;DHT22;59686;51.716;7.016;2024-02-15T15:49:02;13.00;99.90
71837;DHT22;59686;51.716;7.016;2024-02-15T15:51:29;13.00;99.90